Time;durP1;ratioP1;P1;durP2;ratioP2;P2;SDS_P1;SDS_P2;PMS_P1;PMS_P2;Temp;Humidity;BMP_temperature;BMP_pressure;BME280_temperature;BME280_humidity;BME280_pressure;Samples;Min_cycle;Max_cycle;Signal;HPM_P1;HPM_P2
2023/04/05 00:00:47;;;;;;;8.80;4.65;;;;;;;;;;5014922;28;20482;-73
2023/04/05 00:03:13;;;;;;;8.35;4.55;;;;;;;;;;5016352;28;20049;-73
2023/04/05 00:05:39;;;;;;;9.00;4.82;;;;;;;;;;5014878;28;20038;-75
2023/04/05 00:08:17;;;;;;;8.32;4.65;;;;;;;;;;5015310;28;20053;-74
2023/04/05 00:10:43;;;;;;;7.63;4.80;;;;;;;;;;5022539;28;20049;-74
2023/04/05 00:13:09;;;;;;;8.15;4.90;;;;;;;;;;5040348;28;20045;-73
2023/04/05 00:15:35;;;;;;;9.35;4.93;;;;;;;;;;5034096;28;20138;-73
2023/04/05 00:18:02;;;;;;;9.40;4.97;;;;;;;;;;5034342;28;20054;-73
2023/04/05 00:20:28;;;;;;;8.75;4.72;;;;;;;;;;5034055;28;20084;-74
2023/04/05 00:22:54;;;;;;;10.30;4.80;;;;;;;;;;5035699;28;20061;-73
2023/04/05 00:25:21;;;;;;;9.48;5.18;;;;;;;;;;5035808;28;20060;-73
2023/04/05 00:27:47;;;;;;;7.70;5.18;;;;;;;;;;5034566;28;20390;-73
2023/04/05 00:30:19;;;;;;;7.78;4.78;;;;;;;;;;5050822;28;20132;-73
2023/04/05 00:32:47;;;;;;;8.82;5.60;;;;;;;;;;5035531;28;20072;-73
2023/04/05 00:35:13;;;;;;;12.70;5.95;;;;;;;;;;5032256;28;20100;-73
2023/04/05 00:37:40;;;;;;;10.00;5.93;;;;;;;;;;5035193;28;20133;-74
2023/04/05 00:40:06;;;;;;;10.02;5.95;;;;;;;;;;5035370;28;20049;-74
2023/04/05 00:42:32;;;;;;;9.48;5.72;;;;;;;;;;5035148;28;20041;-73
2023/04/05 00:44:58;;;;;;;12.27;5.80;;;;;;;;;;5035164;28;20107;-74
2023/04/05 00:47:24;;;;;;;11.30;6.07;;;;;;;;;;5034784;28;20123;-73
2023/04/05 00:49:51;;;;;;;11.98;6.43;;;;;;;;;;5034739;28;20055;-73
2023/04/05 00:52:22;;;;;;;10.00;5.63;;;;;;;;;;5035155;28;20052;-74
2023/04/05 00:54:50;;;;;;;9.43;6.50;;;;;;;;;;5035044;28;20053;-73
2023/04/05 00:57:17;;;;;;;11.85;6.47;;;;;;;;;;5033893;28;20103;-74
2023/04/05 00:59:43;;;;;;;12.05;6.65;;;;;;;;;;5034928;28;20084;-74
2023/04/05 01:02:24;;;;;;;9.82;6.13;;;;;;;;;;5050437;28;20042;-73
2023/04/05 01:05:00;;;;;;;9.95;6.53;;;;;;;;;;5033724;28;20091;-73
2023/04/05 01:07:36;;;;;;;11.20;6.93;;;;;;;;;;5035260;28;20081;-74
2023/04/05 01:10:04;;;;;;;10.73;6.57;;;;;;;;;;5033397;28;20058;-74
2023/04/05 01:12:31;;;;;;;11.23;6.97;;;;;;;;;;5058478;28;20042;-74
2023/04/05 01:14:58;;;;;;;10.43;7.05;;;;;;;;;;5033537;28;20362;-73
2023/04/05 01:17:26;;;;;;;13.35;7.13;;;;;;;;;;5032583;28;20053;-74
2023/04/05 01:19:57;;;;;;;11.77;7.20;;;;;;;;;;5034162;28;20059;-73
2023/04/05 01:22:51;;;;;;;11.52;7.57;;;;;;;;;;5033189;28;20041;-73
2023/04/05 01:25:23;;;;;;;11.60;7.30;;;;;;;;;;5034561;28;20374;-75
2023/04/05 01:27:50;;;;;;;12.80;7.50;;;;;;;;;;5034690;28;20073;-73
2023/04/05 01:30:22;;;;;;;14.13;7.55;;;;;;;;;;5034306;28;20552;-74
2023/04/05 01:33:06;;;;;;;11.55;7.57;;;;;;;;;;5033187;28;20046;-73
2023/04/05 01:35:33;;;;;;;14.38;7.85;;;;;;;;;;5033974;28;20079;-73
2023/04/05 01:38:02;;;;;;;12.48;7.95;;;;;;;;;;5033386;28;20050;-74
2023/04/05 01:40:28;;;;;;;13.77;7.80;;;;;;;;;;5032992;28;20053;-74
2023/04/05 01:42:54;;;;;;;11.75;7.88;;;;;;;;;;5032956;28;20084;-73
2023/04/05 01:45:20;;;;;;;13.77;7.88;;;;;;;;;;5034036;28;20057;-74
2023/04/05 01:47:46;;;;;;;13.73;8.15;;;;;;;;;;5034121;28;20126;-73
2023/04/05 01:50:12;;;;;;;14.95;8.35;;;;;;;;;;5030063;28;20138;-74
2023/04/05 01:52:39;;;;;;;17.92;8.88;;;;;;;;;;5032839;28;20053;-74
2023/04/05 01:55:05;;;;;;;12.43;8.13;;;;;;;;;;5033603;28;20152;-73
2023/04/05 01:57:31;;;;;;;14.07;8.60;;;;;;;;;;5033969;28;20041;-73
2023/04/05 01:59:57;;;;;;;14.25;8.23;;;;;;;;;;5033200;28;20053;-73
2023/04/05 02:02:23;;;;;;;13.73;8.68;;;;;;;;;;5033920;28;20045;-73
2023/04/05 02:04:49;;;;;;;13.10;8.63;;;;;;;;;;5032282;28;20554;-73
2023/04/05 02:07:15;;;;;;;14.48;9.48;;;;;;;;;;5016333;28;20053;-73
2023/04/05 02:09:41;;;;;;;15.05;10.00;;;;;;;;;;5032182;28;20045;-74
2023/04/05 02:12:07;;;;;;;14.85;9.32;;;;;;;;;;5042579;28;20111;-73
2023/04/05 02:14:34;;;;;;;15.65;9.85;;;;;;;;;;5033744;28;20046;-73
2023/04/05 02:17:01;;;;;;;16.55;10.10;;;20.60;61.60;;;;;;5032556;28;20171;-74
2023/04/05 02:19:30;;;;;;;15.20;9.75;;;4.00;99.90;;;;;;5032225;28;20072;-74
2023/04/05 02:21:56;;;;;;;13.93;9.15;;;3.30;99.90;;;;;;5032407;28;20045;-74
2023/04/05 02:24:21;;;;;;;15.25;9.05;;;3.10;99.90;;;;;;5031999;28;20041;-73
2023/04/05 02:26:47;;;;;;;13.90;9.38;;;3.50;99.90;;;;;;5032533;28;20073;-74
2023/04/05 02:29:13;;;;;;;12.30;8.60;;;4.50;99.90;;;;;;5015545;28;20545;-74
2023/04/05 02:31:39;;;;;;;16.15;8.65;;;3.00;99.90;;;;;;5032086;28;20513;-74
2023/04/05 02:34:08;;;;;;;14.48;9.02;;;3.10;99.90;;;;;;5031808;28;20583;-74
2023/04/05 02:36:33;;;;;;;15.25;9.52;;;3.10;99.90;;;;;;5031916;28;20107;-74
2023/04/05 02:38:59;;;;;;;14.02;9.35;;;3.10;99.90;;;;;;5030543;28;20497;-74
2023/04/05 02:41:25;;;;;;;12.82;8.38;;;4.40;99.90;;;;;;5031618;28;20063;-74
2023/04/05 02:43:50;;;;;;;14.32;8.65;;;3.60;99.90;;;;;;5048139;28;20095;-74
2023/04/05 02:46:16;;;;;;;13.38;8.70;;;4.70;99.90;;;;;;5031654;28;20048;-74
2023/04/05 02:48:42;;;;;;;14.05;9.00;;;4.00;99.90;;;;;;5031793;28;20049;-74
2023/04/05 02:51:08;;;;;;;12.63;8.60;;;3.80;99.90;;;;;;5032120;28;20513;-73
2023/04/05 02:53:34;;;;;;;12.88;8.48;;;3.00;99.90;;;;;;5031510;28;20402;-74
2023/04/05 02:55:59;;;;;;;14.85;8.57;;;2.90;99.90;;;;;;5066022;28;20049;-74
2023/04/05 02:58:25;;;;;;;12.52;8.80;;;2.90;99.90;;;;;;5048774;28;20619;-73
2023/04/05 03:00:52;;;;;;;13.25;8.30;;;2.90;99.90;;;;;;5031547;28;20041;-74
2023/04/05 03:03:19;;;;;;;13.32;7.88;;;2.90;99.90;;;;;;5032818;28;20061;-74
2023/04/05 03:05:47;;;;;;;14.80;9.07;;;2.90;99.90;;;;;;5032666;28;20052;-74
2023/04/05 03:08:18;;;;;;;14.48;9.35;;;2.80;99.90;;;;;;5031609;28;20061;-74
2023/04/05 03:10:47;;;;;;;13.82;9.02;;;2.80;99.90;;;;;;5036037;28;20070;-74
2023/04/05 03:13:13;;;;;;;14.43;8.73;;;2.80;99.90;;;;;;5035636;28;20041;-74
2023/04/05 03:15:40;;;;;;;13.50;9.45;;;2.80;99.90;;;;;;5031198;28;20046;-74
2023/04/05 03:18:06;;;;;;;16.17;9.13;;;2.70;99.90;;;;;;5032549;28;20405;-74
2023/04/05 03:20:34;;;;;;;18.20;9.68;;;2.70;99.90;;;;;;5032476;28;20064;-74
2023/04/05 03:23:00;;;;;;;13.52;9.10;;;2.70;99.90;;;;;;5032947;28;20081;-74
2023/04/05 03:25:26;;;;;;;14.63;9.95;;;3.40;99.90;;;;;;5031326;28;20103;-74
2023/04/05 03:27:52;;;;;;;15.45;10.32;;;2.60;99.90;;;;;;5031110;28;20409;-74
2023/04/05 03:30:18;;;;;;;16.33;10.15;;;2.60;99.90;;;;;;5032417;28;20124;-74
2023/04/05 03:32:43;;;;;;;16.25;9.93;;;2.60;99.90;;;;;;5014057;28;20042;-74
2023/04/05 03:35:09;;;;;;;14.65;10.30;;;2.60;99.90;;;;;;5032168;28;20041;-74
2023/04/05 03:37:34;;;;;;;18.23;11.23;;;2.60;99.90;;;;;;5032406;28;20132;-74
2023/04/05 03:40:00;;;;;;;15.05;10.68;;;3.10;99.90;;;;;;5031023;28;20082;-74
2023/04/05 03:42:26;;;;;;;18.83;11.35;;;2.60;99.90;;;;;;5032047;28;20052;-74
2023/04/05 03:44:52;;;;;;;13.70;10.25;;;2.60;99.90;;;;;;5031637;28;20226;-74
2023/04/05 03:47:18;;;;;;;18.10;11.05;;;2.60;99.90;;;;;;5037151;28;20163;-74
2023/04/05 03:49:44;;;;;;;14.95;9.90;;;2.60;99.90;;;;;;5050772;28;20127;-74
2023/04/05 03:52:09;;;;;;;15.18;10.88;;;2.60;99.90;;;;;;5051976;28;20112;-74
2023/04/05 03:54:35;;;;;;;14.98;10.70;;;2.60;99.90;;;;;;5033525;28;20489;-74
2023/04/05 03:57:01;;;;;;;16.85;10.80;;;2.60;99.90;;;;;;5052466;28;20068;-74
2023/04/05 03:59:27;;;;;;;17.65;10.65;;;2.60;99.90;;;;;;5052076;28;20061;-74
2023/04/05 04:01:53;;;;;;;14.55;10.68;;;2.60;99.90;;;;;;5052920;28;20034;-74
2023/04/05 04:04:18;;;;;;;15.95;10.95;;;2.50;99.90;;;;;;5032043;28;20060;-74
2023/04/05 04:06:44;;;;;;;17.45;11.57;;;2.50;99.90;;;;;;5030782;28;20490;-74
2023/04/05 04:09:10;;;;;;;14.30;10.88;;;2.50;99.90;;;;;;5030402;28;20658;-74
2023/04/05 04:11:35;;;;;;;16.15;11.05;;;2.50;99.90;;;;;;5030075;28;20432;-72
2023/04/05 04:14:01;;;;;;;16.98;11.55;;;2.40;99.90;;;;;;5030794;28;20407;-72
2023/04/05 04:16:26;;;;;;;18.77;11.63;;;2.40;99.90;;;;;;5031188;28;20045;-74
2023/04/05 04:18:53;;;;;;;16.92;11.40;;;2.40;99.90;;;;;;5031548;28;20498;-74
2023/04/05 04:21:23;;;;;;;17.10;10.95;;;2.40;99.90;;;;;;5044036;28;20043;-74
2023/04/05 04:23:50;;;;;;;14.90;11.52;;;2.30;99.90;;;;;;5053477;28;20131;-74
2023/04/05 04:26:25;;;;;;;16.77;11.10;;;2.30;99.90;;;;;;5035301;28;20488;-74
2023/04/05 04:28:52;;;;;;;14.57;10.55;;;2.30;99.90;;;;;;5035280;28;20433;-74
2023/04/05 04:31:20;;;;;;;17.13;10.82;;;2.80;99.90;;;;;;5035807;28;20049;-74
2023/04/05 04:33:48;;;;;;;18.40;11.35;;;2.20;99.90;;;;;;5001414;28;20056;-72
2023/04/05 04:36:14;;;;;;;16.33;11.40;;;2.20;99.90;;;;;;5036733;28;20037;-75
2023/04/05 04:38:43;;;;;;;16.88;11.77;;;2.10;99.90;;;;;;5037524;28;20485;-74
2023/04/05 04:41:18;;;;;;;17.50;11.45;;;2.10;99.90;;;;;;5037416;28;20083;-74
2023/04/05 04:43:44;;;;;;;15.45;11.63;;;3.20;99.90;;;;;;5053640;28;20367;-74
2023/04/05 04:46:13;;;;;;;16.55;11.85;;;2.00;99.90;;;;;;5054499;28;20051;-74
2023/04/05 04:48:41;;;;;;;17.70;12.10;;;2.00;99.90;;;;;;5053588;28;20060;-72
2023/04/05 04:51:07;;;;;;;16.08;11.70;;;1.90;99.90;;;;;;5055417;28;20056;-74
2023/04/05 04:53:32;;;;;;;19.40;12.07;;;1.90;99.90;;;;;;5053964;28;20041;-72
2023/04/05 04:55:58;;;;;;;16.98;11.73;;;1.80;99.90;;;;;;5055095;28;20440;-74
2023/04/05 04:58:24;;;;;;;16.60;11.77;;;1.80;99.90;;;;;;5054951;28;20397;-74
2023/04/05 05:00:51;;;;;;;21.20;12.63;;;1.80;99.90;;;;;;5053455;28;20104;-74
2023/04/05 05:03:17;;;;;;;17.65;12.38;;;1.80;99.90;;;;;;5053244;28;20087;-74
2023/04/05 05:05:49;;;;;;;16.20;12.07;;;1.80;99.90;;;;;;5053267;28;20110;-74
2023/04/05 05:08:15;;;;;;;18.48;13.02;;;1.80;99.90;;;;;;5054588;28;20076;-74
2023/04/05 05:10:41;;;;;;;17.27;12.85;;;1.80;99.90;;;;;;5036869;28;20076;-75
2023/04/05 05:13:07;;;;;;;18.63;12.45;;;1.80;99.90;;;;;;5042310;28;20040;-74
2023/04/05 05:15:33;;;;;;;20.13;12.02;;;2.80;99.90;;;;;;5054009;28;20071;-74
2023/04/05 05:17:58;;;;;;;21.50;12.50;;;1.80;99.90;;;;;;5054380;28;20484;-74
2023/04/05 05:20:26;;;;;;;18.23;12.95;;;2.70;99.90;;;;;;5054077;28;20090;-74
2023/04/05 05:22:51;;;;;;;19.35;12.77;;;1.90;99.90;;;;;;5069753;28;20052;-73
2023/04/05 05:25:17;;;;;;;20.88;13.65;;;1.80;99.90;;;;;;5036176;28;20037;-74
2023/04/05 05:27:43;;;;;;;18.48;12.55;;;1.80;99.90;;;;;;5054430;28;20059;-75
2023/04/05 05:30:09;;;;;;;16.85;12.90;;;1.80;99.90;;;;;;5054078;28;20482;-74
2023/04/05 05:32:35;;;;;;;21.38;12.95;;;1.80;99.90;;;;;;5052732;28;20071;-74
2023/04/05 05:35:01;;;;;;;20.10;12.07;;;1.80;99.90;;;;;;5053377;28;20166;-73
2023/04/05 05:37:31;;;;;;;18.92;12.25;;;1.90;99.90;;;;;;5053195;28;20048;-73
2023/04/05 05:39:57;;;;;;;20.13;12.43;;;1.90;99.90;;;;;;5035803;28;20056;-73
2023/04/05 05:42:22;;;;;;;19.48;12.77;;;1.90;99.90;;;;;;5045008;28;20295;-77
2023/04/05 05:44:48;;;;;;;18.50;13.10;;;1.90;99.90;;;;;;5031902;28;20103;-73
2023/04/05 05:47:14;;;;;;;20.58;13.07;;;1.90;99.90;;;;;;5048287;28;20049;-73
2023/04/05 05:49:40;;;;;;;23.42;13.55;;;2.00;99.90;;;;;;5029190;28;20390;-74
2023/04/05 05:52:06;;;;;;;21.95;13.98;;;2.00;99.90;;;;;;5015397;28;20048;-74
2023/04/05 05:54:31;;;;;;;21.98;13.82;;;2.00;99.90;;;;;;5032582;28;20520;-74
2023/04/05 05:56:57;;;;;;;22.30;13.63;;;3.00;99.90;;;;;;5034115;28;20080;-74
2023/04/05 05:59:24;;;;;;;21.75;13.27;;;2.00;99.90;;;;;;5015887;28;20389;-74
2023/04/05 06:01:50;;;;;;;22.88;14.10;;;2.10;99.90;;;;;;5033794;28;20116;-75
2023/04/05 06:04:16;;;;;;;21.60;13.60;;;2.10;99.90;;;;;;5032954;28;20061;-74
2023/04/05 06:06:42;;;;;;;21.73;13.23;;;3.50;99.90;;;;;;5032376;28;20084;-74
2023/04/05 06:09:09;;;;;;;20.85;13.20;;;2.20;99.90;;;;;;5032745;28;20551;-74
2023/04/05 06:11:35;;;;;;;17.98;12.05;;;2.30;99.90;;;;;;5032583;28;20037;-73
2023/04/05 06:14:01;;;;;;;19.50;12.43;;;2.30;99.90;;;;;;5033312;28;20044;-74
2023/04/05 06:16:27;;;;;;;20.38;12.20;;;2.40;99.90;;;;;;5033256;28;20509;-74
2023/04/05 06:18:55;;;;;;;20.42;12.30;;;3.80;99.90;;;;;;5031557;28;20124;-74
2023/04/05 06:21:20;;;;;;;18.98;12.20;;;2.40;99.90;;;;;;5033173;28;20042;-74
2023/04/05 06:23:46;;;;;;;19.35;12.48;;;2.50;99.90;;;;;;5032656;28;20451;-74
2023/04/05 06:26:17;;;;;;;19.40;12.15;;;2.70;99.90;;;;;;5031844;28;20432;-75
2023/04/05 06:28:46;;;;;;;19.73;12.50;;;2.70;99.90;;;;;;5048577;28;20486;-75
2023/04/05 06:31:13;;;;;;;16.52;11.77;;;4.00;99.90;;;;;;5033016;28;20041;-74
2023/04/05 06:33:39;;;;;;;18.63;12.02;;;2.90;99.90;;;;;;5048105;28;20041;-74
2023/04/05 06:36:05;;;;;;;16.17;11.88;;;3.00;99.90;;;;;;5032901;28;20044;-74
2023/04/05 06:38:30;;;;;;;16.45;11.60;;;3.10;99.90;;;;;;5031512;28;20105;-74
2023/04/05 06:40:56;;;;;;;16.48;11.38;;;3.10;99.90;;;;;;5031946;28;20149;-74
2023/04/05 06:43:22;;;;;;;15.20;10.88;;;3.30;99.90;;;;;;5031328;28;20087;-75
2023/04/05 06:45:47;;;;;;;15.27;10.63;;;3.20;99.90;;;;;;5031994;28;20088;-74
2023/04/05 06:48:13;;;;;;;18.48;11.07;;;3.30;99.90;;;;;;5032946;28;20038;-74
2023/04/05 06:50:39;;;;;;;16.30;11.25;;;3.40;99.90;;;;;;5029510;28;20045;-75
2023/04/05 06:53:05;;;;;;;17.15;11.70;;;3.50;99.90;;;;;;5030708;28;20041;-75
2023/04/05 06:55:31;;;;;;;16.55;11.15;;;3.70;99.90;;;;;;5047728;28;20052;-75
2023/04/05 06:57:57;;;;;;;16.40;11.23;;;3.80;99.90;;;;;;5031046;28;20083;-75
2023/04/05 07:00:23;;;;;;;17.13;10.80;;;4.00;99.90;;;;;;5025942;28;20068;-74
2023/04/05 07:02:49;;;;;;;15.63;10.77;;;4.00;99.90;;;;;;5052287;28;20045;-75
2023/04/05 07:05:14;;;;;;;17.35;11.23;;;4.10;99.90;;;;;;5033974;28;20458;-75
2023/04/05 07:07:42;;;;;;;17.35;10.55;;;5.10;99.90;;;;;;5030928;28;20114;-74
2023/04/05 07:10:08;;;;;;;21.67;11.63;;;5.10;99.90;;;;;;5032284;28;20056;-75
2023/04/05 07:12:34;;;;;;;18.63;10.63;;;;;;;;;;5030612;28;20052;-75
2023/04/05 07:15:00;;;;;;;15.25;10.82;;;;;;;;;;5031998;28;20041;-75
2023/04/05 07:17:27;;;;;;;17.35;10.63;;;;;;;;;;5030739;28;20172;-75
2023/04/05 07:19:53;;;;;;;16.67;10.88;;;;;;;;;;5030310;28;20136;-75
2023/04/05 07:22:19;;;;;;;16.33;11.13;;;;;;;;;;5031891;28;20488;-74
2023/04/05 07:24:45;;;;;;;15.43;11.13;;;;;;;;;;5013752;28;20046;-74
2023/04/05 07:27:11;;;;;;;17.98;11.20;;;;;;;;;;5032663;28;20060;-75
2023/04/05 07:29:39;;;;;;;18.98;11.57;;;;;;;;;;5016123;22;20080;-73
2023/04/05 07:32:06;;;;;;;19.65;10.98;;;;;;;;;;5012331;28;20049;-73
2023/04/05 07:34:33;;;;;;;17.65;10.75;;;;;;;;;;5024904;28;20184;-73
2023/04/05 07:36:59;;;;;;;16.45;10.73;;;;;;;;;;5027020;28;20042;-74
2023/04/05 07:39:25;;;;;;;16.98;10.25;;;;;;;;;;5026029;28;20042;-74
2023/04/05 07:41:51;;;;;;;20.23;11.23;;;;;;;;;;5026296;28;20050;-74
2023/04/05 07:44:17;;;;;;;14.27;11.07;;;;;;;;;;5038908;28;20045;-74
2023/04/05 07:46:44;;;;;;;13.88;10.20;;;;;;;;;;5046401;28;20047;-74
2023/04/05 07:49:10;;;;;;;14.05;9.82;;;;;;;;;;5045680;28;20136;-73
2023/04/05 07:51:37;;;;;;;14.60;10.20;;;;;;;;;;5045239;28;20175;-72
2023/04/05 07:54:04;;;;;;;14.15;10.02;;;;;;;;;;5046059;28;20055;-72
2023/04/05 07:56:31;;;;;;;13.23;9.82;;;;;;;;;;5044688;28;20444;-71
2023/04/05 07:58:57;;;;;;;15.00;9.77;;;;;;;;;;5046348;28;20076;-74
2023/04/05 08:01:26;;;;;;;13.23;9.40;;;;;;;;;;5047049;28;20088;-73
2023/04/05 08:03:53;;;;;;;13.15;9.60;;;;;;;;;;5033436;28;20365;-72
2023/04/05 08:06:19;;;;;;;14.32;9.75;;;;;;;;;;5042547;28;20047;-73
2023/04/05 08:08:45;;;;;;;14.77;9.55;;;;;;;;;;5051235;28;20041;-74
2023/04/05 08:11:12;;;;;;;13.55;8.90;;;;;;;;;;5050914;28;20044;-71
2023/04/05 08:13:40;;;;;;;14.02;8.98;;;;;;;;;;5049781;28;20076;-73
2023/04/05 08:16:07;;;;;;;12.85;9.02;;;;;;;;;;5050090;28;20110;-73
2023/04/05 08:18:33;;;;;;;12.77;8.27;;;;;;;;;;5044029;28;20184;-73
2023/04/05 08:20:59;;;;;;;14.18;8.18;;;;;;;;;;5027748;28;20041;-72
2023/04/05 08:23:26;;;;;;;12.02;8.48;;;;;;;;;;5032770;28;20049;-73
2023/04/05 08:25:52;;;;;;;13.13;8.55;;;;;;;;;;5048989;28;20048;-72
2023/04/05 08:28:18;;;;;;;12.07;7.53;;;;;;;;;;5047610;28;20056;-74
2023/04/05 08:30:47;;;;;;;12.65;7.72;;;;;;;;;;5049488;28;20176;-72
2023/04/05 08:33:14;;;;;;;11.23;7.68;;;;;;;;;;5032459;28;20052;-72
2023/04/05 08:35:41;;;;;;;12.45;8.40;;;;;;;;;;5050119;28;20065;-74
2023/04/05 08:38:07;;;;;;;12.93;7.57;;;;;;;;;;5049201;28;20092;-73
2023/04/05 08:40:41;;;;;;;10.35;7.35;;;;;;;;;;5047267;28;20381;-74
2023/04/05 08:43:27;;;;;;;9.63;6.95;;;;;;;;;;5049187;28;20052;-71
2023/04/05 08:45:54;;;;;;;14.20;7.32;;;;;;;;;;5050011;28;20510;-75
2023/04/05 08:48:20;;;;;;;9.23;6.70;;;;;;;;;;5047135;28;20157;-72
2023/04/05 08:50:50;;;;;;;8.10;6.97;;;;;;;;;;5030773;28;20075;-72
2023/04/05 08:53:16;;;;;;;9.95;6.40;;;;;;;;;;5048610;28;20128;-72
2023/04/05 08:55:43;;;;;;;11.65;7.00;;;;;;;;;;5048309;28;20056;-73
2023/04/05 08:58:13;;;;;;;11.50;6.30;;;;;;;;;;5050315;28;20413;-73
2023/04/05 09:00:40;;;;;;;8.77;6.07;;;;;;;;;;5048424;28;20037;-73
2023/04/05 09:03:06;;;;;;;10.30;6.45;;;;;;;;;;5049498;28;20124;-73
2023/04/05 09:05:33;;;;;;;8.50;5.60;;;;;;;;;;5030662;28;20045;-73
2023/04/05 09:07:59;;;;;;;11.40;5.93;;;;;;;;;;5047900;28;20057;-73
2023/04/05 09:10:26;;;;;;;8.52;5.93;;;;;;;;;;5048348;28;20080;-74
2023/04/05 09:12:52;;;;;;;11.52;5.82;;;;;;;;;;5036345;28;20041;-73
2023/04/05 09:15:23;;;;;;;8.73;4.68;;;;;;;;;;5012460;28;20038;-75
2023/04/05 09:17:50;;;;;;;8.77;5.40;;;;;;;;;;5031539;28;20319;-73
2023/04/05 09:20:16;;;;;;;9.75;5.20;;;;;;;;;;5029169;28;20045;-73
2023/04/05 09:22:44;;;;;;;8.98;4.93;;;4.70;99.90;;;;;;5028263;28;20124;-73
2023/04/05 09:25:10;;;;;;;7.97;5.00;;;16.00;78.30;;;;;;5028676;28;20126;-75
2023/04/05 09:27:55;;;;;;;8.38;4.97;;;16.50;75.50;;;;;;5029623;28;20116;-74
2023/04/05 09:30:22;;;;;;;7.68;4.47;;;17.30;69.00;;;;;;5025259;28;20061;-73
2023/04/05 09:32:51;;;;;;;8.90;4.75;;;17.80;66.70;;;;;;5027774;28;20048;-73
2023/04/05 09:35:25;;;;;;;8.50;4.82;;;18.40;60.90;;;;;;5029248;28;20053;-72
2023/04/05 09:37:55;;;;;;;7.50;4.75;;;17.70;59.20;;;;;;5027686;28;20049;-74
2023/04/05 09:40:22;;;;;;;7.75;4.07;;;19.80;60.30;;;;;;5029466;28;20041;-75
2023/04/05 09:42:48;;;;;;;7.50;4.05;;;21.50;59.20;;;;;;5029411;28;20073;-74
2023/04/05 09:45:14;;;;;;;8.52;4.75;;;19.60;53.00;;;;;;5011420;28;20460;-75
2023/04/05 09:47:40;;;;;;;10.00;4.20;;;21.30;55.30;;;;;;4999428;28;20247;-73
2023/04/05 09:50:16;;;;;;;5.57;3.70;;;;;;;;;;5027567;28;20037;-73
2023/04/05 09:52:42;;;;;;;7.68;4.30;;;;;;;;;;5026982;28;20052;-74
2023/04/05 09:55:09;;;;;;;6.70;3.50;;;;;;;;;;5030109;28;20111;-74
2023/04/05 09:57:38;;;;;;;6.75;3.90;;;;;;;;;;4994305;28;20053;-74
2023/04/05 10:00:05;;;;;;;6.22;3.72;;;;;;;;;;5029684;28;20048;-74
2023/04/05 10:02:39;;;;;;;5.72;3.28;;;;;;;;;;5030709;28;20057;-74
2023/04/05 10:05:14;;;;;;;5.10;3.60;;;;;;;;;;5026815;28;20561;-74
2023/04/05 10:07:44;;;;;;;5.97;3.40;;;;;;;;;;5027714;28;20102;-74
2023/04/05 10:10:15;;;;;;;5.75;2.95;;;;;;;;;;5028688;28;20508;-74
2023/04/05 10:12:41;;;;;;;4.93;2.90;;;;;;;;;;5002642;28;20080;-75
2023/04/05 10:15:08;;;;;;;5.75;3.13;;;;;;;;;;5010860;28;20057;-76
2023/04/05 10:17:38;;;;;;;5.10;3.30;;;;;;;;;;5028303;28;20204;-75
2023/04/05 10:20:04;;;;;;;5.53;3.30;;;;;;;;;;4993312;28;20350;-74
2023/04/05 10:22:43;;;;;;;6.35;3.38;;;;;;;;;;5030876;28;20029;-74
2023/04/05 10:25:18;;;;;;;7.32;3.65;;;;;;;;;;5027440;28;20045;-75
2023/04/05 10:27:48;;;;;;;5.47;3.30;;;;;;;;;;5039390;28;20045;-74
2023/04/05 10:30:15;;;;;;;7.05;3.88;;;;;;;;;;5049029;28;20057;-75
2023/04/05 10:32:48;;;;;;;5.10;3.45;;;;;;;;;;5049028;28;20103;-75
2023/04/05 10:35:28;;;;;;;7.20;3.97;;;;;;;;;;5047452;28;20469;-75
2023/04/05 10:38:03;;;;;;;6.03;4.07;;;;;;;;;;5047115;28;20452;-72
2023/04/05 10:40:31;;;;;;;6.78;4.40;;;;;;;;;;5029316;28;20119;-73
2023/04/05 10:42:59;;;;;;;6.55;3.95;;;;;;;;;;5046498;28;20128;-76
2023/04/05 10:45:26;;;;;;;9.20;4.25;;;;;;;;;;5025338;28;20052;-75
2023/04/05 10:48:02;;;;;;;5.40;3.67;;;;;;;;;;5041620;28;20497;-74
2023/04/05 10:50:29;;;;;;;5.53;3.45;;;;;;;;;;5043300;28;20504;-75
2023/04/05 10:52:55;;;;;;;6.28;3.80;;;;;;;;;;5025837;28;20048;-75
2023/04/05 10:55:22;;;;;;;6.30;3.90;;;;;;;;;;5043381;28;20044;-75
2023/04/05 10:57:49;;;;;;;6.80;3.80;;;;;;;;;;5043508;28;20045;-74
2023/04/05 11:00:16;;;;;;;6.18;3.95;;;;;;;;;;5044541;28;20048;-75
2023/04/05 11:02:42;;;;;;;5.72;4.05;;;;;;;;;;5044016;28;20053;-75
2023/04/05 11:05:28;;;;;;;5.55;3.58;;;;;;;;;;5043408;28;20480;-74
2023/04/05 11:07:55;;;;;;;7.95;3.55;;;;;;;;;;5042142;28;20041;-75
2023/04/05 11:10:22;;;;;;;5.63;3.65;;;;;;;;;;5044348;28;20496;-75
2023/04/05 11:12:48;;;;;;;5.60;3.80;;;;;;;;;;5032415;28;20252;-75
2023/04/05 11:15:26;;;;;;;6.05;3.38;;;;;;;;;;5005371;28;20052;-74
2023/04/05 11:18:09;;;;;;;5.65;3.40;;;;;;;;;;5040021;28;20044;-74
2023/04/05 11:20:46;;;;;;;6.38;3.20;;;;;;;;;;5046878;28;20108;-75
2023/04/05 11:23:17;;;;;;;5.80;3.10;;;;;;;;;;5045033;28;20052;-74
2023/04/05 11:25:47;;;;;;;5.03;3.25;;;;;;;;;;5048882;28;20048;-74
2023/04/05 11:28:29;;;;;;;5.75;3.58;;;;;;;;;;5046871;28;20045;-74
2023/04/05 11:30:57;;;;;;;6.78;3.70;;;;;;;;;;5045451;28;20057;-74
2023/04/05 11:33:36;;;;;;;6.72;3.90;;;;;;;;;;5047148;28;20067;-73
2023/04/05 11:36:02;;;;;;;5.90;3.50;;;;;;;;;;5045223;28;20132;-74
2023/04/05 11:38:28;;;;;;;4.90;3.38;;;;;;;;;;5045339;28;20045;-74
2023/04/05 11:41:06;;;;;;;6.22;3.28;;;;;;;;;;5046136;28;20460;-74
2023/04/05 11:43:37;;;;;;;5.70;3.22;;;;;;;;;;5045210;28;20435;-74
2023/04/05 11:46:04;;;;;;;5.90;3.30;;;;;;;;;;5047353;28;20171;-76
2023/04/05 11:48:30;;;;;;;4.78;3.08;;;;;;;;;;5046257;28;20049;-75
2023/04/05 11:50:57;;;;;;;6.32;3.30;;;;;;;;;;5045448;28;20048;-75
2023/04/05 11:53:23;;;;;;;6.50;3.50;;;;;;;;;;5029299;28;20045;-75
2023/04/05 11:55:50;;;;;;;5.22;2.92;;;;;;;;;;5047935;28;20064;-75
2023/04/05 11:58:17;;;;;;;6.10;3.22;;;;;;;;;;5045440;28;20473;-75
2023/04/05 12:00:44;;;;;;;5.97;3.42;;;;;;;;;;5046850;28;20045;-75
2023/04/05 12:03:14;;;;;;;4.65;3.10;;;;;;;;;;5046150;28;20382;-76
2023/04/05 12:05:50;;;;;;;4.72;3.10;;;;;;;;;;5044871;28;20049;-76
2023/04/05 12:08:16;;;;;;;5.43;3.10;;;;;;;;;;5045900;28;20049;-78
2023/04/05 12:10:42;;;;;;;3.50;2.88;;;;;;;;;;5047326;28;20053;-75
2023/04/05 12:13:08;;;;;;;6.60;3.50;;;;;;;;;;5032103;28;20118;-75
2023/04/05 12:15:37;;;;;;;5.25;3.05;;;;;;;;;;5025923;28;20053;-75
2023/04/05 12:18:03;;;;;;;5.13;3.15;;;;;;;;;;5025672;28;20045;-75
2023/04/05 12:20:29;;;;;;;5.20;3.28;;;;;;;;;;4991907;28;20100;-75
2023/04/05 12:22:56;;;;;;;5.95;3.28;;;;;;;;;;5027496;28;20037;-75
2023/04/05 12:25:22;;;;;;;5.05;3.50;;;;;;;;;;5026010;28;20048;-76
2023/04/05 12:27:48;;;;;;;9.18;3.63;;;;;;;;;;5049195;28;20094;-75
2023/04/05 12:30:18;;;;;;;5.80;3.72;;;;;;;;;;5045359;28;20052;-75
2023/04/05 12:32:50;;;;;;;6.18;3.45;;;;;;;;;;5046203;28;20045;-75
2023/04/05 12:35:17;;;;;;;5.50;3.47;;;;;;;;;;5047336;28;20120;-75
2023/04/05 12:37:43;;;;;;;6.10;3.75;;;;;;;;;;5043374;28;20040;-75
2023/04/05 12:40:10;;;;;;;8.52;4.25;;;;;;;;;;5044546;28;20479;-75
2023/04/05 12:42:40;;;;;;;7.65;4.10;;;;;;;;;;5046630;28;20049;-75
2023/04/05 12:45:09;;;;;;;4.80;3.30;;;;;;;;;;5047003;28;20377;-75
2023/04/05 12:47:35;;;;;;;6.15;3.58;;;;;;;;;;5031321;28;20056;-75
2023/04/05 12:50:11;;;;;;;9.13;3.90;;;;;;;;;;5031075;28;20041;-75
2023/04/05 12:52:37;;;;;;;7.45;4.00;;;;;;;;;;5050000;28;20052;-75
2023/04/05 12:55:04;;;;;;;5.45;3.60;;;;;;;;;;5049672;28;20049;-75
2023/04/05 12:57:33;;;;;;;5.75;3.78;;;;;;;;;;5033871;28;20496;-75
2023/04/05 12:59:59;;;;;;;6.55;3.60;;;;;;;;;;5033375;28;20223;-80
2023/04/05 13:02:25;;;;;;;6.22;3.80;;;;;;;;;;5047607;28;20056;-81
2023/04/05 13:04:52;;;;;;;10.90;3.92;;;;;;;;;;5043910;28;20040;-77
2023/04/05 13:07:18;;;;;;;7.32;3.97;;;;;;;;;;5047668;28;20115;-78
2023/04/05 13:09:44;;;;;;;7.00;3.65;;;;;;;;;;5045925;28;20045;-77
2023/04/05 13:12:11;;;;;;;7.03;3.78;;;;;;;;;;5041906;28;20547;-77
2023/04/05 13:14:37;;;;;;;5.05;3.53;;;;;;;;;;5047022;28;20132;-77
2023/04/05 13:17:03;;;;;;;5.40;3.60;;;;;;;;;;5048337;28;20044;-77
2023/04/05 13:19:29;;;;;;;6.22;4.13;;;;;;;;;;5047296;28;20845;-77
2023/04/05 13:21:55;;;;;;;6.75;4.00;;;;;;;;;;5048077;28;20037;-76
2023/04/05 13:24:21;;;;;;;5.97;3.65;;;;;;;;;;5048009;28;20075;-77
2023/04/05 13:26:47;;;;;;;5.88;3.83;;;;;;;;;;5047850;28;20072;-76
2023/04/05 13:29:13;;;;;;;7.40;4.18;;;;;;;;;;5049068;28;20047;-76
2023/04/05 13:31:39;;;;;;;8.30;4.53;;;;;;;;;;5033361;28;20095;-77
2023/04/05 13:34:09;;;;;;;7.22;3.75;;;;;;;;;;5030862;28;20049;-78
2023/04/05 13:36:35;;;;;;;6.95;4.28;;;;;;;;;;5035048;28;20099;-77
2023/04/05 13:39:01;;;;;;;5.28;3.83;;;;;;;;;;5045579;28;20057;-77
2023/04/05 13:41:27;;;;;;;6.55;3.90;;;;;;;;;;5044276;28;20052;-76
2023/04/05 13:43:53;;;;;;;6.18;4.10;;;;;;;;;;5044416;28;20478;-76
2023/04/05 13:46:19;;;;;;;7.45;4.00;;;;;;;;;;5045906;28;20151;-76
2023/04/05 13:48:45;;;;;;;7.93;4.13;;;;;;;;;;5028781;28;20096;-76